sensor_id;sensor_type;location;lat;lon;timestamp;temperature;humidity
42755;DHT22;28407;51.830;5.684;2022-09-09T00:00:19;19.60;71.80
42755;DHT22;28407;51.830;5.684;2022-09-09T00:02:24;19.50;71.80
42755;DHT22;28407;51.830;5.684;2022-09-09T00:04:35;19.50;71.80
42755;DHT22;28407;51.830;5.684;2022-09-09T00:09:18;19.50;71.90
42755;DHT22;28407;51.830;5.684;2022-09-09T00:11:25;19.50;72.00
42755;DHT22;28407;51.830;5.684;2022-09-09T00:13:37;19.50;71.90
42755;DHT22;28407;51.830;5.684;2022-09-09T00:15:45;19.50;72.00
42755;DHT22;28407;51.830;5.684;2022-09-09T00:17:56;19.50;72.00
42755;DHT22;28407;51.830;5.684;2022-09-09T00:20:28;19.40;72.00
42755;DHT22;28407;51.830;5.684;2022-09-09T00:22:30;19.40;72.00
42755;DHT22;28407;51.830;5.684;2022-09-09T00:24:39;19.30;71.90
42755;DHT22;28407;51.830;5.684;2022-09-09T00:26:48;19.30;72.00
42755;DHT22;28407;51.830;5.684;2022-09-09T00:31:16;19.30;72.10
42755;DHT22;28407;51.830;5.684;2022-09-09T00:33:22;19.30;72.10
42755;DHT22;28407;51.830;5.684;2022-09-09T00:35:34;19.20;72.00
42755;DHT22;28407;51.830;5.684;2022-09-09T00:37:37;19.20;72.00
42755;DHT22;28407;51.830;5.684;2022-09-09T00:39:42;19.20;72.00
42755;DHT22;28407;51.830;5.684;2022-09-09T00:41:56;19.20;72.10
42755;DHT22;28407;51.830;5.684;2022-09-09T00:51:59;19.10;72.10
42755;DHT22;28407;51.830;5.684;2022-09-09T00:54:13;19.10;72.10
42755;DHT22;28407;51.830;5.684;2022-09-09T00:56:19;19.00;72.10
42755;DHT22;28407;51.830;5.684;2022-09-09T00:58:21;19.00;72.10
42755;DHT22;28407;51.830;5.684;2022-09-09T01:00:25;19.00;72.10
42755;DHT22;28407;51.830;5.684;2022-09-09T01:02:33;19.00;72.00
42755;DHT22;28407;51.830;5.684;2022-09-09T01:04:37;19.00;72.00
42755;DHT22;28407;51.830;5.684;2022-09-09T01:06:38;19.00;72.00
42755;DHT22;28407;51.830;5.684;2022-09-09T01:09:02;19.00;72.10
42755;DHT22;28407;51.830;5.684;2022-09-09T01:11:12;19.00;72.00
42755;DHT22;28407;51.830;5.684;2022-09-09T01:13:35;19.00;72.00
42755;DHT22;28407;51.830;5.684;2022-09-09T01:15:41;19.00;72.00
42755;DHT22;28407;51.830;5.684;2022-09-09T01:25:11;18.90;72.20
42755;DHT22;28407;51.830;5.684;2022-09-09T01:27:57;18.90;72.20
42755;DHT22;28407;51.830;5.684;2022-09-09T01:29:59;18.90;72.10
42755;DHT22;28407;51.830;5.684;2022-09-09T01:34:40;18.80;72.10
42755;DHT22;28407;51.830;5.684;2022-09-09T01:37:02;18.80;72.00
42755;DHT22;28407;51.830;5.684;2022-09-09T01:39:05;18.80;72.00
42755;DHT22;28407;51.830;5.684;2022-09-09T01:41:07;18.80;72.00
42755;DHT22;28407;51.830;5.684;2022-09-09T01:43:16;18.80;72.10
42755;DHT22;28407;51.830;5.684;2022-09-09T01:45:16;18.80;72.10
42755;DHT22;28407;51.830;5.684;2022-09-09T01:47:17;18.80;72.20
42755;DHT22;28407;51.830;5.684;2022-09-09T01:49:33;18.70;72.20
42755;DHT22;28407;51.830;5.684;2022-09-09T01:51:40;18.70;72.20
42755;DHT22;28407;51.830;5.684;2022-09-09T01:53:48;18.70;72.20
42755;DHT22;28407;51.830;5.684;2022-09-09T02:00:27;18.70;72.20
42755;DHT22;28407;51.830;5.684;2022-09-09T02:03:00;18.60;72.20
42755;DHT22;28407;51.830;5.684;2022-09-09T02:07:44;18.60;72.30
42755;DHT22;28407;51.830;5.684;2022-09-09T02:10:13;18.60;72.30
42755;DHT22;28407;51.830;5.684;2022-09-09T02:12:24;18.60;72.30
42755;DHT22;28407;51.830;5.684;2022-09-09T02:14:33;18.50;72.20
42755;DHT22;28407;51.830;5.684;2022-09-09T02:17:03;18.50;72.30
42755;DHT22;28407;51.830;5.684;2022-09-09T02:19:30;18.50;72.30
42755;DHT22;28407;51.830;5.684;2022-09-09T02:21:50;18.50;72.30
42755;DHT22;28407;51.830;5.684;2022-09-09T02:23:51;18.50;72.30
42755;DHT22;28407;51.830;5.684;2022-09-09T02:25:55;18.50;72.40
42755;DHT22;28407;51.830;5.684;2022-09-09T02:27:59;18.40;72.30
42755;DHT22;28407;51.830;5.684;2022-09-09T02:30:03;18.40;72.40
42755;DHT22;28407;51.830;5.684;2022-09-09T02:32:18;18.40;72.40
42755;DHT22;28407;51.830;5.684;2022-09-09T02:34:22;18.40;72.40
42755;DHT22;28407;51.830;5.684;2022-09-09T02:36:26;18.40;72.40
42755;DHT22;28407;51.830;5.684;2022-09-09T02:38:32;18.40;72.40
42755;DHT22;28407;51.830;5.684;2022-09-09T02:40:40;18.40;72.40
42755;DHT22;28407;51.830;5.684;2022-09-09T02:42:46;18.40;72.40
42755;DHT22;28407;51.830;5.684;2022-09-09T02:44:48;18.40;72.40
42755;DHT22;28407;51.830;5.684;2022-09-09T02:54:08;18.30;72.50
42755;DHT22;28407;51.830;5.684;2022-09-09T02:56:17;18.30;73.20
42755;DHT22;28407;51.830;5.684;2022-09-09T02:58:21;18.30;72.50
42755;DHT22;28407;51.830;5.684;2022-09-09T03:00:36;18.30;72.60
42755;DHT22;28407;51.830;5.684;2022-09-09T03:02:37;18.30;73.30
42755;DHT22;28407;51.830;5.684;2022-09-09T03:04:40;18.30;72.70
42755;DHT22;28407;51.830;5.684;2022-09-09T03:06:42;18.30;72.70
42755;DHT22;28407;51.830;5.684;2022-09-09T03:08:51;18.30;72.70
42755;DHT22;28407;51.830;5.684;2022-09-09T03:10:59;18.20;72.70
42755;DHT22;28407;51.830;5.684;2022-09-09T03:13:03;18.30;72.80
42755;DHT22;28407;51.830;5.684;2022-09-09T03:15:08;18.30;72.80
42755;DHT22;28407;51.830;5.684;2022-09-09T03:17:08;18.20;72.70
42755;DHT22;28407;51.830;5.684;2022-09-09T03:19:16;18.30;72.70
42755;DHT22;28407;51.830;5.684;2022-09-09T03:21:17;18.30;72.80
42755;DHT22;28407;51.830;5.684;2022-09-09T03:23:18;18.20;72.80
42755;DHT22;28407;51.830;5.684;2022-09-09T03:25:21;18.30;72.80
42755;DHT22;28407;51.830;5.684;2022-09-09T03:27:24;18.20;72.80
42755;DHT22;28407;51.830;5.684;2022-09-09T03:29:25;18.20;72.80
42755;DHT22;28407;51.830;5.684;2022-09-09T03:31:29;18.20;72.80
42755;DHT22;28407;51.830;5.684;2022-09-09T03:33:31;18.20;72.80
42755;DHT22;28407;51.830;5.684;2022-09-09T03:35:32;18.20;72.90
42755;DHT22;28407;51.830;5.684;2022-09-09T03:37:33;18.20;72.90
42755;DHT22;28407;51.830;5.684;2022-09-09T03:39:34;18.20;72.90
42755;DHT22;28407;51.830;5.684;2022-09-09T03:41:34;18.20;72.90
42755;DHT22;28407;51.830;5.684;2022-09-09T03:43:36;18.20;73.00
42755;DHT22;28407;51.830;5.684;2022-09-09T03:45:38;18.20;73.00
42755;DHT22;28407;51.830;5.684;2022-09-09T03:47:39;18.20;73.00
42755;DHT22;28407;51.830;5.684;2022-09-09T03:49:40;18.20;73.00
42755;DHT22;28407;51.830;5.684;2022-09-09T03:51:41;18.20;73.10
42755;DHT22;28407;51.830;5.684;2022-09-09T03:53:45;18.20;73.10
42755;DHT22;28407;51.830;5.684;2022-09-09T03:55:47;18.30;73.10
42755;DHT22;28407;51.830;5.684;2022-09-09T03:57:48;18.30;73.20
42755;DHT22;28407;51.830;5.684;2022-09-09T03:59:49;18.30;73.10
42755;DHT22;28407;51.830;5.684;2022-09-09T04:01:50;18.30;73.20
42755;DHT22;28407;51.830;5.684;2022-09-09T04:03:51;18.30;73.30
42755;DHT22;28407;51.830;5.684;2022-09-09T04:05:54;18.30;73.30
42755;DHT22;28407;51.830;5.684;2022-09-09T04:07:55;18.20;73.20
42755;DHT22;28407;51.830;5.684;2022-09-09T04:09:56;18.30;73.40
42755;DHT22;28407;51.830;5.684;2022-09-09T04:11:57;18.30;73.40
42755;DHT22;28407;51.830;5.684;2022-09-09T04:13:58;18.30;73.40
42755;DHT22;28407;51.830;5.684;2022-09-09T04:15:59;18.30;73.40
42755;DHT22;28407;51.830;5.684;2022-09-09T04:18:02;18.30;73.40
42755;DHT22;28407;51.830;5.684;2022-09-09T04:20:02;18.30;73.50
42755;DHT22;28407;51.830;5.684;2022-09-09T04:22:03;18.30;73.40
42755;DHT22;28407;51.830;5.684;2022-09-09T04:24:04;18.30;73.50
42755;DHT22;28407;51.830;5.684;2022-09-09T04:26:05;18.30;73.50
42755;DHT22;28407;51.830;5.684;2022-09-09T04:28:07;18.30;73.50
42755;DHT22;28407;51.830;5.684;2022-09-09T04:30:09;18.30;73.60
42755;DHT22;28407;51.830;5.684;2022-09-09T04:32:11;18.30;73.60
42755;DHT22;28407;51.830;5.684;2022-09-09T04:34:12;18.30;73.60
42755;DHT22;28407;51.830;5.684;2022-09-09T04:36:13;18.30;73.60
42755;DHT22;28407;51.830;5.684;2022-09-09T04:38:15;18.30;73.70
42755;DHT22;28407;51.830;5.684;2022-09-09T04:40:16;18.30;73.70
42755;DHT22;28407;51.830;5.684;2022-09-09T04:42:17;18.30;73.70
42755;DHT22;28407;51.830;5.684;2022-09-09T04:44:20;18.30;73.70
42755;DHT22;28407;51.830;5.684;2022-09-09T04:46:22;18.30;73.80
42755;DHT22;28407;51.830;5.684;2022-09-09T04:48:23;18.30;73.90
42755;DHT22;28407;51.830;5.684;2022-09-09T04:50:25;18.30;73.90
42755;DHT22;28407;51.830;5.684;2022-09-09T04:52:36;18.30;73.90
42755;DHT22;28407;51.830;5.684;2022-09-09T04:54:37;18.30;74.00
42755;DHT22;28407;51.830;5.684;2022-09-09T04:56:39;18.30;74.00
42755;DHT22;28407;51.830;5.684;2022-09-09T04:58:42;18.30;74.10
42755;DHT22;28407;51.830;5.684;2022-09-09T05:00:44;18.30;74.10
42755;DHT22;28407;51.830;5.684;2022-09-09T05:02:45;18.30;74.10
42755;DHT22;28407;51.830;5.684;2022-09-09T05:04:46;18.30;74.20
42755;DHT22;28407;51.830;5.684;2022-09-09T05:06:47;18.30;74.20
42755;DHT22;28407;51.830;5.684;2022-09-09T05:08:49;18.30;74.20
42755;DHT22;28407;51.830;5.684;2022-09-09T05:10:53;18.20;74.10
42755;DHT22;28407;51.830;5.684;2022-09-09T05:12:54;18.20;74.20
42755;DHT22;28407;51.830;5.684;2022-09-09T05:14:57;18.20;74.30
42755;DHT22;28407;51.830;5.684;2022-09-09T05:16:57;18.20;74.30
42755;DHT22;28407;51.830;5.684;2022-09-09T05:18:58;18.30;74.50
42755;DHT22;28407;51.830;5.684;2022-09-09T05:21:01;18.20;74.40
42755;DHT22;28407;51.830;5.684;2022-09-09T05:23:02;18.20;74.50
42755;DHT22;28407;51.830;5.684;2022-09-09T05:25:05;18.30;74.50
42755;DHT22;28407;51.830;5.684;2022-09-09T05:27:06;18.30;74.50
42755;DHT22;28407;51.830;5.684;2022-09-09T05:29:07;18.30;74.50
42755;DHT22;28407;51.830;5.684;2022-09-09T05:31:10;18.30;74.50
42755;DHT22;28407;51.830;5.684;2022-09-09T05:33:14;18.30;74.50
42755;DHT22;28407;51.830;5.684;2022-09-09T05:35:14;18.30;74.50
42755;DHT22;28407;51.830;5.684;2022-09-09T05:37:16;18.30;74.60
42755;DHT22;28407;51.830;5.684;2022-09-09T05:39:17;18.30;74.60
42755;DHT22;28407;51.830;5.684;2022-09-09T05:41:18;18.30;74.70
42755;DHT22;28407;51.830;5.684;2022-09-09T05:43:20;18.30;74.70
42755;DHT22;28407;51.830;5.684;2022-09-09T05:45:21;18.30;74.70
42755;DHT22;28407;51.830;5.684;2022-09-09T05:47:21;18.30;74.70
42755;DHT22;28407;51.830;5.684;2022-09-09T05:49:22;18.30;74.70
42755;DHT22;28407;51.830;5.684;2022-09-09T05:51:26;18.30;74.70
42755;DHT22;28407;51.830;5.684;2022-09-09T05:53:30;18.30;74.80
42755;DHT22;28407;51.830;5.684;2022-09-09T05:55:32;18.30;74.80
42755;DHT22;28407;51.830;5.684;2022-09-09T05:57:33;18.30;74.80
42755;DHT22;28407;51.830;5.684;2022-09-09T05:59:34;18.30;74.90
42755;DHT22;28407;51.830;5.684;2022-09-09T06:01:36;18.30;75.00
42755;DHT22;28407;51.830;5.684;2022-09-09T06:03:42;18.30;74.90
42755;DHT22;28407;51.830;5.684;2022-09-09T06:05:43;18.40;75.00
42755;DHT22;28407;51.830;5.684;2022-09-09T06:07:44;18.30;74.90
42755;DHT22;28407;51.830;5.684;2022-09-09T06:09:45;18.30;75.00
42755;DHT22;28407;51.830;5.684;2022-09-09T06:11:46;18.30;75.00
42755;DHT22;28407;51.830;5.684;2022-09-09T06:13:48;18.30;75.10
42755;DHT22;28407;51.830;5.684;2022-09-09T06:15:51;18.30;75.00
42755;DHT22;28407;51.830;5.684;2022-09-09T06:17:55;18.30;75.00
42755;DHT22;28407;51.830;5.684;2022-09-09T06:19:56;18.30;75.10
42755;DHT22;28407;51.830;5.684;2022-09-09T06:21:57;18.30;75.10
42755;DHT22;28407;51.830;5.684;2022-09-09T06:23:59;18.30;75.20
42755;DHT22;28407;51.830;5.684;2022-09-09T06:26:11;18.30;75.20
42755;DHT22;28407;51.830;5.684;2022-09-09T06:28:12;18.30;75.30
42755;DHT22;28407;51.830;5.684;2022-09-09T06:30:13;18.30;75.30
42755;DHT22;28407;51.830;5.684;2022-09-09T06:32:14;18.30;75.30
42755;DHT22;28407;51.830;5.684;2022-09-09T06:34:15;18.30;75.30
42755;DHT22;28407;51.830;5.684;2022-09-09T06:36:25;18.30;75.30
42755;DHT22;28407;51.830;5.684;2022-09-09T06:38:26;18.30;75.30
42755;DHT22;28407;51.830;5.684;2022-09-09T06:40:28;18.30;75.30
42755;DHT22;28407;51.830;5.684;2022-09-09T06:42:29;18.30;75.40
42755;DHT22;28407;51.830;5.684;2022-09-09T06:44:39;18.30;75.40
42755;DHT22;28407;51.830;5.684;2022-09-09T06:46:44;18.30;75.40
42755;DHT22;28407;51.830;5.684;2022-09-09T06:48:48;18.30;75.50
42755;DHT22;28407;51.830;5.684;2022-09-09T06:50:50;18.30;75.50
42755;DHT22;28407;51.830;5.684;2022-09-09T06:52:50;18.30;75.50
42755;DHT22;28407;51.830;5.684;2022-09-09T06:54:52;18.30;75.50
42755;DHT22;28407;51.830;5.684;2022-09-09T06:56:53;18.30;75.50
42755;DHT22;28407;51.830;5.684;2022-09-09T06:58:59;18.30;75.50
42755;DHT22;28407;51.830;5.684;2022-09-09T07:01:05;18.40;75.60
42755;DHT22;28407;51.830;5.684;2022-09-09T07:03:07;18.40;75.60
42755;DHT22;28407;51.830;5.684;2022-09-09T07:05:07;18.40;75.60
42755;DHT22;28407;51.830;5.684;2022-09-09T07:07:09;18.40;75.60
42755;DHT22;28407;51.830;5.684;2022-09-09T07:09:14;18.50;75.60
42755;DHT22;28407;51.830;5.684;2022-09-09T07:11:19;18.40;75.60
42755;DHT22;28407;51.830;5.684;2022-09-09T07:13:28;18.50;75.60
42755;DHT22;28407;51.830;5.684;2022-09-09T07:15:30;18.50;75.50
42755;DHT22;28407;51.830;5.684;2022-09-09T07:17:31;18.50;75.50
42755;DHT22;28407;51.830;5.684;2022-09-09T07:19:33;18.40;75.50
42755;DHT22;28407;51.830;5.684;2022-09-09T07:21:36;18.50;75.60
42755;DHT22;28407;51.830;5.684;2022-09-09T07:23:39;18.40;75.60
42755;DHT22;28407;51.830;5.684;2022-09-09T07:25:44;18.50;75.60
42755;DHT22;28407;51.830;5.684;2022-09-09T07:27:46;18.50;75.60
42755;DHT22;28407;51.830;5.684;2022-09-09T07:29:47;18.50;75.60
42755;DHT22;28407;51.830;5.684;2022-09-09T07:31:48;18.60;75.70
42755;DHT22;28407;51.830;5.684;2022-09-09T07:33:53;18.50;75.60
42755;DHT22;28407;51.830;5.684;2022-09-09T07:36:02;18.60;75.60
42755;DHT22;28407;51.830;5.684;2022-09-09T07:38:04;18.60;75.60
42755;DHT22;28407;51.830;5.684;2022-09-09T07:40:08;18.60;75.50
42755;DHT22;28407;51.830;5.684;2022-09-09T07:42:09;18.60;75.40
42755;DHT22;28407;51.830;5.684;2022-09-09T07:44:22;18.60;75.40
42755;DHT22;28407;51.830;5.684;2022-09-09T07:46:28;18.70;75.50
42755;DHT22;28407;51.830;5.684;2022-09-09T07:48:29;18.70;75.50
42755;DHT22;28407;51.830;5.684;2022-09-09T07:50:30;18.70;75.40
42755;DHT22;28407;51.830;5.684;2022-09-09T07:52:33;18.70;75.40
42755;DHT22;28407;51.830;5.684;2022-09-09T07:54:37;18.70;75.40
42755;DHT22;28407;51.830;5.684;2022-09-09T07:56:40;18.80;75.40
42755;DHT22;28407;51.830;5.684;2022-09-09T07:58:44;18.80;75.40
42755;DHT22;28407;51.830;5.684;2022-09-09T08:00:45;18.80;75.30
42755;DHT22;28407;51.830;5.684;2022-09-09T08:02:45;18.80;75.20
42755;DHT22;28407;51.830;5.684;2022-09-09T08:04:46;18.80;75.20
42755;DHT22;28407;51.830;5.684;2022-09-09T08:06:54;18.80;75.10
42755;DHT22;28407;51.830;5.684;2022-09-09T08:08:57;18.90;75.00
42755;DHT22;28407;51.830;5.684;2022-09-09T08:11:06;18.90;75.00
42755;DHT22;28407;51.830;5.684;2022-09-09T08:13:09;18.90;75.00
42755;DHT22;28407;51.830;5.684;2022-09-09T08:15:09;19.00;74.90
42755;DHT22;28407;51.830;5.684;2022-09-09T08:17:10;19.00;74.80
42755;DHT22;28407;51.830;5.684;2022-09-09T08:19:11;19.00;74.70
42755;DHT22;28407;51.830;5.684;2022-09-09T08:21:16;19.10;74.70
42755;DHT22;28407;51.830;5.684;2022-09-09T08:23:18;19.10;74.60
42755;DHT22;28407;51.830;5.684;2022-09-09T08:25:18;19.10;74.50
42755;DHT22;28407;51.830;5.684;2022-09-09T08:27:19;19.10;74.30
42755;DHT22;28407;51.830;5.684;2022-09-09T08:29:20;19.10;74.30
42755;DHT22;28407;51.830;5.684;2022-09-09T08:31:24;19.20;74.10
42755;DHT22;28407;51.830;5.684;2022-09-09T08:33:25;19.20;74.00
42755;DHT22;28407;51.830;5.684;2022-09-09T08:35:26;19.20;73.90
42755;DHT22;28407;51.830;5.684;2022-09-09T08:37:26;19.20;73.90
42755;DHT22;28407;51.830;5.684;2022-09-09T08:39:27;19.20;73.90
42755;DHT22;28407;51.830;5.684;2022-09-09T08:41:37;19.20;73.80
42755;DHT22;28407;51.830;5.684;2022-09-09T08:43:41;19.20;73.80
42755;DHT22;28407;51.830;5.684;2022-09-09T08:46:00;19.20;73.80
42755;DHT22;28407;51.830;5.684;2022-09-09T08:48:15;19.20;73.70
42755;DHT22;28407;51.830;5.684;2022-09-09T08:50:27;19.30;73.60
42755;DHT22;28407;51.830;5.684;2022-09-09T08:54:58;19.30;73.70
42755;DHT22;28407;51.830;5.684;2022-09-09T08:57:04;19.30;73.30
42755;DHT22;28407;51.830;5.684;2022-09-09T08:59:11;19.30;73.20
42755;DHT22;28407;51.830;5.684;2022-09-09T09:06:23;19.30;73.00
42755;DHT22;28407;51.830;5.684;2022-09-09T09:08:33;19.30;73.00
42755;DHT22;28407;51.830;5.684;2022-09-09T09:10:53;19.30;73.00
42755;DHT22;28407;51.830;5.684;2022-09-09T09:12:58;19.20;72.90
42755;DHT22;28407;51.830;5.684;2022-09-09T09:14:59;19.30;72.90
42755;DHT22;28407;51.830;5.684;2022-09-09T09:17:06;19.20;72.80
42755;DHT22;28407;51.830;5.684;2022-09-09T09:19:13;19.30;72.80
42755;DHT22;28407;51.830;5.684;2022-09-09T09:21:37;19.30;72.80
42755;DHT22;28407;51.830;5.684;2022-09-09T09:23:47;19.40;72.70
42755;DHT22;28407;51.830;5.684;2022-09-09T09:25:58;19.40;72.60
42755;DHT22;28407;51.830;5.684;2022-09-09T09:28:24;19.40;72.50
42755;DHT22;28407;51.830;5.684;2022-09-09T09:30:49;19.40;72.40
42755;DHT22;28407;51.830;5.684;2022-09-09T09:33:00;19.50;72.40
42755;DHT22;28407;51.830;5.684;2022-09-09T09:35:09;19.50;72.30
42755;DHT22;28407;51.830;5.684;2022-09-09T09:37:16;19.50;72.10
42755;DHT22;28407;51.830;5.684;2022-09-09T09:39:28;19.60;72.20
42755;DHT22;28407;51.830;5.684;2022-09-09T09:41:38;19.60;72.00
42755;DHT22;28407;51.830;5.684;2022-09-09T09:43:41;19.60;71.90
42755;DHT22;28407;51.830;5.684;2022-09-09T09:45:48;19.50;71.80
42755;DHT22;28407;51.830;5.684;2022-09-09T09:48:04;19.60;71.90
42755;DHT22;28407;51.830;5.684;2022-09-09T09:50:17;19.60;71.80
42755;DHT22;28407;51.830;5.684;2022-09-09T09:52:23;19.60;71.60
42755;DHT22;28407;51.830;5.684;2022-09-09T09:54:38;19.60;71.60
42755;DHT22;28407;51.830;5.684;2022-09-09T09:56:40;19.70;71.70
42755;DHT22;28407;51.830;5.684;2022-09-09T10:00:51;19.70;71.60
42755;DHT22;28407;51.830;5.684;2022-09-09T10:02:54;19.70;71.50
42755;DHT22;28407;51.830;5.684;2022-09-09T10:05:14;19.70;71.50
42755;DHT22;28407;51.830;5.684;2022-09-09T10:07:20;19.70;71.50
42755;DHT22;28407;51.830;5.684;2022-09-09T10:09:30;19.70;71.40
42755;DHT22;28407;51.830;5.684;2022-09-09T10:11:55;19.70;71.30
42755;DHT22;28407;51.830;5.684;2022-09-09T10:14:30;19.70;71.30
42755;DHT22;28407;51.830;5.684;2022-09-09T10:19:04;19.70;71.30
42755;DHT22;28407;51.830;5.684;2022-09-09T10:21:17;19.60;71.20
42755;DHT22;28407;51.830;5.684;2022-09-09T10:26:10;19.60;71.30
42755;DHT22;28407;51.830;5.684;2022-09-09T10:33:50;19.70;71.20
42755;DHT22;28407;51.830;5.684;2022-09-09T10:38:50;19.80;71.00
42755;DHT22;28407;51.830;5.684;2022-09-09T10:40:48;19.80;71.10
42755;DHT22;28407;51.830;5.684;2022-09-09T10:45:35;19.70;71.30
42755;DHT22;28407;51.830;5.684;2022-09-09T10:50:45;19.80;71.40
42755;DHT22;28407;51.830;5.684;2022-09-09T10:55:02;19.70;71.60
42755;DHT22;28407;51.830;5.684;2022-09-09T10:57:36;19.70;72.00
42755;DHT22;28407;51.830;5.684;2022-09-09T10:59:42;19.60;72.30
42755;DHT22;28407;51.830;5.684;2022-09-09T11:01:49;19.50;72.50
42755;DHT22;28407;51.830;5.684;2022-09-09T11:03:56;19.60;73.00
42755;DHT22;28407;51.830;5.684;2022-09-09T11:06:06;19.50;73.20
42755;DHT22;28407;51.830;5.684;2022-09-09T11:12:21;19.60;73.70
42755;DHT22;28407;51.830;5.684;2022-09-09T11:14:32;19.70;73.80
42755;DHT22;28407;51.830;5.684;2022-09-09T11:16:56;19.70;73.90
42755;DHT22;28407;51.830;5.684;2022-09-09T11:19:09;19.70;73.90
42755;DHT22;28407;51.830;5.684;2022-09-09T11:21:26;19.70;74.00
42755;DHT22;28407;51.830;5.684;2022-09-09T11:23:40;19.70;74.00
42755;DHT22;28407;51.830;5.684;2022-09-09T11:25:47;19.70;74.10
42755;DHT22;28407;51.830;5.684;2022-09-09T11:37:44;19.60;74.30
42755;DHT22;28407;51.830;5.684;2022-09-09T11:42:26;19.50;74.50
42755;DHT22;28407;51.830;5.684;2022-09-09T11:44:30;19.60;74.70
42755;DHT22;28407;51.830;5.684;2022-09-09T11:46:36;19.60;74.70
42755;DHT22;28407;51.830;5.684;2022-09-09T11:48:43;19.60;74.70
42755;DHT22;28407;51.830;5.684;2022-09-09T11:50:45;19.60;74.80
42755;DHT22;28407;51.830;5.684;2022-09-09T11:52:47;19.60;74.70
42755;DHT22;28407;51.830;5.684;2022-09-09T11:54:49;19.50;74.70
42755;DHT22;28407;51.830;5.684;2022-09-09T11:56:50;19.50;74.80
42755;DHT22;28407;51.830;5.684;2022-09-09T12:00:56;19.50;74.90
42755;DHT22;28407;51.830;5.684;2022-09-09T12:02:56;19.50;75.00
42755;DHT22;28407;51.830;5.684;2022-09-09T12:05:11;19.50;75.00
42755;DHT22;28407;51.830;5.684;2022-09-09T12:07:36;19.50;75.00
42755;DHT22;28407;51.830;5.684;2022-09-09T12:09:48;19.50;75.00
42755;DHT22;28407;51.830;5.684;2022-09-09T12:11:52;19.50;75.00
42755;DHT22;28407;51.830;5.684;2022-09-09T12:13:54;19.50;75.00
42755;DHT22;28407;51.830;5.684;2022-09-09T12:15:57;19.50;75.00
42755;DHT22;28407;51.830;5.684;2022-09-09T12:17:58;19.50;75.00
42755;DHT22;28407;51.830;5.684;2022-09-09T12:20:04;19.50;74.90
42755;DHT22;28407;51.830;5.684;2022-09-09T12:22:24;19.60;75.00
42755;DHT22;28407;51.830;5.684;2022-09-09T12:24:43;19.60;74.90
42755;DHT22;28407;51.830;5.684;2022-09-09T12:27:17;19.70;74.80
42755;DHT22;28407;51.830;5.684;2022-09-09T12:36:38;19.80;74.90
42755;DHT22;28407;51.830;5.684;2022-09-09T12:38:41;19.80;74.80
42755;DHT22;28407;51.830;5.684;2022-09-09T12:40:42;19.80;74.70
42755;DHT22;28407;51.830;5.684;2022-09-09T12:42:42;19.90;74.70
42755;DHT22;28407;51.830;5.684;2022-09-09T12:44:54;19.80;74.50
42755;DHT22;28407;51.830;5.684;2022-09-09T12:46:57;19.80;74.60
42755;DHT22;28407;51.830;5.684;2022-09-09T12:48:59;19.80;74.60
42755;DHT22;28407;51.830;5.684;2022-09-09T12:51:00;19.90;74.60
42755;DHT22;28407;51.830;5.684;2022-09-09T12:53:08;19.90;74.70
42755;DHT22;28407;51.830;5.684;2022-09-09T12:55:18;19.90;74.80
42755;DHT22;28407;51.830;5.684;2022-09-09T12:57:22;19.80;74.90
42755;DHT22;28407;51.830;5.684;2022-09-09T12:59:38;19.90;75.00
42755;DHT22;28407;51.830;5.684;2022-09-09T13:01:39;20.00;75.00
42755;DHT22;28407;51.830;5.684;2022-09-09T13:03:43;19.90;74.80
42755;DHT22;28407;51.830;5.684;2022-09-09T13:05:46;20.10;74.90
42755;DHT22;28407;51.830;5.684;2022-09-09T13:07:50;20.10;74.80
42755;DHT22;28407;51.830;5.684;2022-09-09T13:09:51;20.10;74.60
42755;DHT22;28407;51.830;5.684;2022-09-09T13:11:55;20.10;74.50
42755;DHT22;28407;51.830;5.684;2022-09-09T13:13:57;20.20;74.60
42755;DHT22;28407;51.830;5.684;2022-09-09T13:16:02;20.20;74.50
42755;DHT22;28407;51.830;5.684;2022-09-09T13:18:10;20.30;74.40
42755;DHT22;28407;51.830;5.684;2022-09-09T13:20:17;20.30;74.20
42755;DHT22;28407;51.830;5.684;2022-09-09T13:22:29;20.40;74.20
42755;DHT22;28407;51.830;5.684;2022-09-09T13:24:33;20.40;74.00
42755;DHT22;28407;51.830;5.684;2022-09-09T13:26:35;20.40;73.90
42755;DHT22;28407;51.830;5.684;2022-09-09T13:28:35;20.50;73.80
42755;DHT22;28407;51.830;5.684;2022-09-09T13:30:37;20.50;73.70
42755;DHT22;28407;51.830;5.684;2022-09-09T13:32:41;20.50;73.60
42755;DHT22;28407;51.830;5.684;2022-09-09T13:34:54;20.50;73.50
42755;DHT22;28407;51.830;5.684;2022-09-09T13:37:00;20.50;73.40
42755;DHT22;28407;51.830;5.684;2022-09-09T13:39:15;20.50;73.30
42755;DHT22;28407;51.830;5.684;2022-09-09T13:41:22;20.50;73.10
42755;DHT22;28407;51.830;5.684;2022-09-09T13:43:25;20.60;73.10
42755;DHT22;28407;51.830;5.684;2022-09-09T13:45:26;20.50;73.00
42755;DHT22;28407;51.830;5.684;2022-09-09T13:47:31;20.60;73.00
42755;DHT22;28407;51.830;5.684;2022-09-09T13:49:32;20.50;72.90
42755;DHT22;28407;51.830;5.684;2022-09-09T13:51:36;20.60;72.90
42755;DHT22;28407;51.830;5.684;2022-09-09T13:53:37;20.50;72.80
42755;DHT22;28407;51.830;5.684;2022-09-09T13:55:38;20.50;72.80
42755;DHT22;28407;51.830;5.684;2022-09-09T13:57:39;20.60;72.90
42755;DHT22;28407;51.830;5.684;2022-09-09T13:59:51;20.50;72.90
42755;DHT22;28407;51.830;5.684;2022-09-09T14:01:52;20.60;72.90
42755;DHT22;28407;51.830;5.684;2022-09-09T14:03:53;20.60;72.90
42755;DHT22;28407;51.830;5.684;2022-09-09T14:05:54;20.50;73.40
42755;DHT22;28407;51.830;5.684;2022-09-09T14:07:54;20.50;72.80
42755;DHT22;28407;51.830;5.684;2022-09-09T14:09:55;20.60;72.80
42755;DHT22;28407;51.830;5.684;2022-09-09T14:11:56;20.60;72.70
42755;DHT22;28407;51.830;5.684;2022-09-09T14:13:56;20.60;72.70
42755;DHT22;28407;51.830;5.684;2022-09-09T14:15:57;20.70;72.70
42755;DHT22;28407;51.830;5.684;2022-09-09T14:17:57;20.70;72.60
42755;DHT22;28407;51.830;5.684;2022-09-09T14:19:59;20.70;72.50
42755;DHT22;28407;51.830;5.684;2022-09-09T14:22:00;20.70;72.50
42755;DHT22;28407;51.830;5.684;2022-09-09T14:24:01;20.70;72.40
42755;DHT22;28407;51.830;5.684;2022-09-09T14:26:02;20.70;72.50
42755;DHT22;28407;51.830;5.684;2022-09-09T14:28:02;20.70;72.50
42755;DHT22;28407;51.830;5.684;2022-09-09T14:30:03;20.70;72.40
42755;DHT22;28407;51.830;5.684;2022-09-09T14:32:05;20.70;72.40
42755;DHT22;28407;51.830;5.684;2022-09-09T14:34:05;20.70;72.30
42755;DHT22;28407;51.830;5.684;2022-09-09T14:36:06;20.70;72.30
42755;DHT22;28407;51.830;5.684;2022-09-09T14:38:08;20.80;72.30
42755;DHT22;28407;51.830;5.684;2022-09-09T14:40:09;20.80;72.30
42755;DHT22;28407;51.830;5.684;2022-09-09T14:42:11;20.70;72.40
42755;DHT22;28407;51.830;5.684;2022-09-09T14:44:11;20.80;72.50
42755;DHT22;28407;51.830;5.684;2022-09-09T14:46:14;20.80;72.70